Aviation Digital Data Service (ADDS)

Output produced by METARs form (2208 UTC 23 March 2017)
found at http://aviationweather.gov/adds/metars/
 
KLCH 232153Z 17009KT 10SM CLR 27/12 A3011 RMK AO2 SLP204 T02720122 $